Language: 


Des rapports , des résumés tant et plus, au choix de chacun....


Données Historiques de Météogheer
Journalier Rapport pour Janvier 15, 2018 Unitée:  Les deux    Impériale   Métrique
Suivant Jour »
Journalier Hebdomadaire Mensuel Annuel Sur mesure
  Max: Min: Moyenne:
Température: 48.7 °F /  9.3 °C 31.6 °F /  -0.2 °C 41.4 °F /  5.2 °C
Point de rosée: 48.2 °F /  9.0 °C 30.2 °F /  -1.0 °C 41 °F /  5 °C
Humidité: 98% 90% 97%
Vent: 19.7mph /  31.7km/h - 8.5mph /  13.7km/h
Rafales: 26.8mph /  43.1km/h - -
Vent- - SW
Pression: 30 in /  1016.1 hPa 29.3 in /  992.1 hPa -
Pluie: 0.34 in /  8.6 mm    
Historical Graphs
 
 
Données tabulaires pour Janvier 15, 2018
Heure Température Point de rosée Pression Vent Vent Rafales Humidité Pluie Taux (Horaire) Conditions
00:16 32.4 °F /  0.2 °C 32 °F /  0.0 °C 30in /  1016.1hPa Calm     98% 0in /  0.0mm
00:25 32 °F /  0.0 °C 30.2 °F /  -1.0 °C 30in /  1016.1hPa Calm     98% 0in /  0.0mm
00:31 31.6 °F /  -0.2 °C 30.2 °F /  -1.0 °C 30in /  1016.1hPa Calm     98% 0in /  0.0mm
00:38 31.6 °F /  -0.2 °C 30.2 °F /  -1.0 °C 30in /  1016.1hPa South 3.1mph /  5.0km/h 3.1mph /  5.0km/h 98% 0in /  0.0mm
00:48 32 °F /  0.0 °C 30.2 °F /  -1.0 °C 30in /  1015.1hPa Calm   3.6mph /  5.8km/h 98% 0in /  0.0mm
01:14 33.3 °F /  0.7 °C 33.8 °F /  1.0 °C 30in /  1015.1hPa SSW 2.9mph /  4.7km/h 5.6mph /  9.0km/h 98% 0in /  0.0mm
01:21 33.6 °F /  0.9 °C 33.8 °F /  1.0 °C 30in /  1015.1hPa South 3.6mph /  5.8km/h 4.3mph /  6.9km/h 98% 0in /  0.0mm
01:31 33.8 °F /  1.0 °C 33.8 °F /  1.0 °C 30in /  1015.1hPa SSW 2.7mph /  4.3km/h 5.4mph /  8.7km/h 98% 0in /  0.0mm
01:36 34 °F /  1.1 °C 33.8 °F /  1.0 °C 30in /  1015.1hPa SSW 3.8mph /  6.1km/h 4.5mph /  7.2km/h 98% 0in /  0.0mm
01:49 34 °F /  1.1 °C 33.8 °F /  1.0 °C 30in /  1015.1hPa SSW 1.1mph /  1.8km/h 4.5mph /  7.2km/h 98% 0in /  0.0mm
01:54 34 °F /  1.1 °C 33.8 °F /  1.0 °C 30in /  1015.1hPa Calm   5.6mph /  9.0km/h 98% 0in /  0.0mm
02:02 34 °F /  1.1 °C 33.8 °F /  1.0 °C 30in /  1015.1hPa Calm   3.8mph /  6.1km/h 98% 0in /  0.0mm
02:09 34 °F /  1.1 °C 33.8 °F /  1.0 °C 30in /  1015.1hPa SSW 4.3mph /  6.9km/h 4.3mph /  6.9km/h 98% 0in /  0.0mm
02:18 34 °F /  1.1 °C 33.8 °F /  1.0 °C 29.9in /  1014.1hPa SSW 4mph /  6.4km/h 5.4mph /  8.7km/h 98% 0in /  0.0mm
02:23 34 °F /  1.1 °C 33.8 °F /  1.0 °C 29.9in /  1014.1hPa Calm   5.6mph /  9.0km/h 98% 0in /  0.0mm
02:32 34 °F /  1.1 °C 33.8 °F /  1.0 °C 30in /  1015.1hPa South 2.9mph /  4.7km/h 4.7mph /  7.6km/h 98% 0in /  0.0mm
02:51 34 °F /  1.1 °C 33.8 °F /  1.0 °C 29.9in /  1014.1hPa Calm   4mph /  6.4km/h 98% 0in /  0.0mm
02:56 34 °F /  1.1 °C 33.8 °F /  1.0 °C 29.9in /  1014.1hPa SSW 3.4mph /  5.5km/h 4.3mph /  6.9km/h 98% 0in /  0.0mm
03:11 34 °F /  1.1 °C 33.8 °F /  1.0 °C 29.9in /  1013.1hPa SSW 7.2mph /  11.6km/h 8.1mph /  13.0km/h 98% 0in /  0.0mm
03:25 34 °F /  1.1 °C 33.8 °F /  1.0 °C 29.9in /  1013.1hPa SSW 5.6mph /  9.0km/h 8.1mph /  13.0km/h 98% 0in /  0.0mm
03:31 34 °F /  1.1 °C 33.8 °F /  1.0 °C 29.9in /  1013.1hPa SSW 7.2mph /  11.6km/h 9.8mph /  15.8km/h 98% 0in /  0.0mm
03:37 34 °F /  1.1 °C 33.8 °F /  1.0 °C 29.9in /  1013.1hPa South 6.3mph /  10.1km/h 8.1mph /  13.0km/h 98% 0in /  0.0mm
03:46 34 °F /  1.1 °C 33.8 °F /  1.0 °C 29.9in /  1013.1hPa WSW 13mph /  20.9km/h 14.1mph /  22.7km/h 98% 0in /  0.0mm
04:07 34 °F /  1.1 °C 33.8 °F /  1.0 °C 29.9in /  1012.1hPa SW 8.7mph /  14.0km/h 13mph /  20.9km/h 98% 0in /  0.0mm
04:14 34 °F /  1.1 °C 33.8 °F /  1.0 °C 29.9in /  1012.1hPa SSW 6.5mph /  10.5km/h 13.2mph /  21.2km/h 98% 0in /  0.0mm
04:39 34 °F /  1.1 °C 33.8 °F /  1.0 °C 29.9in /  1013.1hPa SSW 9.8mph /  15.8km/h 10.7mph /  17.2km/h 98% 0in /  0.0mm
04:49 34 °F /  1.1 °C 33.8 °F /  1.0 °C 29.9in /  1013.1hPa SSW 9.2mph /  14.8km/h 12.8mph /  20.6km/h 98% 0in /  0.0mm
04:55 34 °F /  1.1 °C 33.8 °F /  1.0 °C 29.9in /  1013.1hPa SW 7.4mph /  11.9km/h 12.8mph /  20.6km/h 98% 0in /  0.0mm
05:05 34 °F /  1.1 °C 33.8 °F /  1.0 °C 29.9in /  1013.1hPa SW 5.6mph /  9.0km/h 11mph /  17.7km/h 98% 0in /  0.0mm
05:10 34 °F /  1.1 °C 33.8 °F /  1.0 °C 29.9in /  1013.1hPa SSW 19.7mph /  31.7km/h 19.7mph /  31.7km/h 98% 0in /  0.0mm
05:15 34 °F /  1.1 °C 33.8 °F /  1.0 °C 29.9in /  1013.1hPa SSW 4.3mph /  6.9km/h 19.7mph /  31.7km/h 98% 0in /  0.0mm
05:20 34 °F /  1.1 °C 33.8 °F /  1.0 °C 29.9in /  1013.1hPa South 4.9mph /  7.9km/h 7.6mph /  12.2km/h 98% 0in /  0.0mm
05:25 34 °F /  1.1 °C 33.8 °F /  1.0 °C 29.9in /  1012.1hPa South 4.9mph /  7.9km/h 8.7mph /  14.0km/h 98% 0in /  0.0mm
05:45 34 °F /  1.1 °C 33.8 °F /  1.0 °C 29.9in /  1011.1hPa SSW 8.1mph /  13.0km/h 8.7mph /  14.0km/h 98% 0in /  0.0mm
05:54 34 °F /  1.1 °C 33.8 °F /  1.0 °C 29.9in /  1011.1hPa SSW 6.7mph /  10.8km/h 11mph /  17.7km/h 98% 0in /  0.0mm
06:00 34 °F /  1.1 °C 33.8 °F /  1.0 °C 29.9in /  1011.1hPa South 6mph /  9.7km/h 11mph /  17.7km/h 98% 0in /  0.0mm
06:16 34 °F /  1.1 °C 33.8 °F /  1.0 °C 29.9in /  1011.1hPa SSW 7.6mph /  12.2km/h 12.3mph /  19.8km/h 98% 0in /  0.0mm
06:21 34 °F /  1.1 °C 33.8 °F /  1.0 °C 29.9in /  1011.1hPa SSW 5.8mph /  9.3km/h 12.3mph /  19.8km/h 98% 0in /  0.0mm
06:26 34 °F /  1.1 °C 33.8 °F /  1.0 °C 29.9in /  1011.1hPa SSW 5.6mph /  9.0km/h 13mph /  20.9km/h 98% 0in /  0.0mm
06:34 34 °F /  1.1 °C 33.8 °F /  1.0 °C 29.9in /  1011.1hPa South 5.8mph /  9.3km/h 13mph /  20.9km/h 98% 0in /  0.0mm
06:53 34 °F /  1.1 °C 33.8 °F /  1.0 °C 29.9in /  1011.1hPa SSW 6.5mph /  10.5km/h 11.4mph /  18.3km/h 98% 0in /  0.0mm
07:11 34 °F /  1.1 °C 33.8 °F /  1.0 °C 29.8in /  1010.0hPa SSW 6.5mph /  10.5km/h 10.7mph /  17.2km/h 98% 0in /  0.0mm
07:16 34 °F /  1.1 °C 33.8 °F /  1.0 °C 29.8in /  1010.0hPa South 3.1mph /  5.0km/h 10.1mph /  16.3km/h 98% 0in /  0.0mm
07:29 34 °F /  1.1 °C 33.8 °F /  1.0 °C 29.8in /  1009.0hPa SW 11mph /  17.7km/h 11mph /  17.7km/h 98% 0in /  0.0mm
07:34 34 °F /  1.1 °C 33.8 °F /  1.0 °C 29.8in /  1009.0hPa South 7.4mph /  11.9km/h 11mph /  17.7km/h 98% 0in /  0.0mm
07:43 34 °F /  1.1 °C 33.8 °F /  1.0 °C 29.8in /  1009.0hPa South 6.5mph /  10.5km/h 11mph /  17.7km/h 98% 0in /  0.0mm
07:54 34 °F /  1.1 °C 33.8 °F /  1.0 °C 29.8in /  1009.0hPa SSW 6.5mph /  10.5km/h 10.7mph /  17.2km/h 98% 0in /  0.0mm
08:00 34 °F /  1.1 °C 33.8 °F /  1.0 °C 29.8in /  1009.0hPa SW 7.8mph /  12.6km/h 10.5mph /  16.9km/h 98% 0in /  0.0mm
08:07 34 °F /  1.1 °C 33.8 °F /  1.0 °C 29.8in /  1009.0hPa SSW 6mph /  9.7km/h 13.2mph /  21.2km/h 98% 0in /  0.0mm
08:18 34 °F /  1.1 °C 33.8 °F /  1.0 °C 29.8in /  1009.0hPa South 8.7mph /  14.0km/h 13mph /  20.9km/h 98% 0in /  0.0mm
08:26 34 °F /  1.1 °C 33.8 °F /  1.0 °C 29.8in /  1008.0hPa SSE 7.4mph /  11.9km/h 12.5mph /  20.1km/h 98% 0in /  0.0mm
08:34 34 °F /  1.1 °C 33.8 °F /  1.0 °C 29.8in /  1008.0hPa SSW 6.5mph /  10.5km/h 13mph /  20.9km/h 98% 0in /  0.0mm
08:51 41.7 °F /  5.4 °C 42.8 °F /  6.0 °C 29.7in /  1007.0hPa SSW 5.4mph /  8.7km/h 13.2mph /  21.2km/h 98% 0in /  0.0mm
08:56 41.7 °F /  5.4 °C 42.8 °F /  6.0 °C 29.7in /  1007.0hPa SSW 7.2mph /  11.6km/h 13.2mph /  21.2km/h 98% 0in /  0.0mm
09:04 41.9 °F /  5.5 °C 42.8 °F /  6.0 °C 29.7in /  1007.0hPa SSW 8.1mph /  13.0km/h 15.4mph /  24.8km/h 98% 0in /  0.0mm
09:10 42.1 °F /  5.6 °C 42.8 °F /  6.0 °C 29.7in /  1007.0hPa SW 7.6mph /  12.2km/h 15.4mph /  24.8km/h 98% 0in /  0.0mm
09:15 42.3 °F /  5.7 °C 42.8 °F /  6.0 °C 29.7in /  1007.0hPa SSW 9.4mph /  15.1km/h 15.2mph /  24.5km/h 98% 0in /  0.0mm
09:22 42.3 °F /  5.7 °C 42.8 °F /  6.0 °C 29.7in /  1007.0hPa SW 7.6mph /  12.2km/h 13.2mph /  21.2km/h 98% 0in /  0.0mm
10:02 43.3 °F /  6.3 °C 42.8 °F /  6.0 °C 29.7in /  1006.0hPa SSW 12.8mph /  20.6km/h 14.8mph /  23.8km/h 96% 0in /  0.0mm
10:11 43.3 °F /  6.3 °C 42.8 °F /  6.0 °C 29.7in /  1006.0hPa SSW 10.5mph /  16.9km/h 17.4mph /  28.0km/h 96% 0in /  0.0mm
10:29 43.5 °F /  6.4 °C 42.8 °F /  6.0 °C 29.7in /  1006.0hPa South 10.1mph /  16.3km/h 17.2mph /  27.7km/h 94% 0in /  0.0mm
10:39 43.5 °F /  6.4 °C 42.8 °F /  6.0 °C 29.7in /  1006.0hPa SSW 15.2mph /  24.5km/h 15.7mph /  25.3km/h 94% 0in /  0.0mm
10:44 43.5 °F /  6.4 °C 42.8 °F /  6.0 °C 29.7in /  1005.0hPa SSW 8.9mph /  14.3km/h 17.4mph /  28.0km/h 94% 0in /  0.0mm
11:06 43.5 °F /  6.4 °C 42.8 °F /  6.0 °C 29.6in /  1003.9hPa SSW 12.8mph /  20.6km/h 16.8mph /  27.0km/h 94% 0.02in /  0.5mm
11:25 43.5 °F /  6.4 °C 42.8 °F /  6.0 °C 29.7in /  1006.0hPa SSW 8.1mph /  13.0km/h 18.6mph /  29.9km/h 94% 0.03in /  0.8mm
11:36 43.5 °F /  6.4 °C 42.8 °F /  6.0 °C 29.6in /  1003.9hPa SSW 12.1mph /  19.5km/h 21mph /  33.8km/h 94% 0.03in /  0.8mm
11:47 43.3 °F /  6.3 °C 42.8 °F /  6.0 °C 29.6in /  1001.9hPa SSW 6.7mph /  10.8km/h 22.1mph /  35.6km/h 98% 0.02in /  0.5mm
11:59 43.3 °F /  6.3 °C 42.8 °F /  6.0 °C 29.6in /  1002.9hPa SW 16.8mph /  27.0km/h 20.4mph /  32.8km/h 98% 0.01in /  0.3mm
12:05 43.3 °F /  6.3 °C 42.8 °F /  6.0 °C 29.6in /  1002.9hPa SSW 16.1mph /  25.9km/h 24.2mph /  38.9km/h 98% 0.01in /  0.3mm
12:11 43.3 °F /  6.3 °C 42.8 °F /  6.0 °C 29.6in /  1001.9hPa SW 8.9mph /  14.3km/h 16.8mph /  27.0km/h 98% 0.01in /  0.3mm
12:21 43.3 °F /  6.3 °C 42.8 °F /  6.0 °C 29.6in /  1001.9hPa SW 9.8mph /  15.8km/h 22.1mph /  35.6km/h 98% 0in /  0.0mm
12:32 43.3 °F /  6.3 °C 42.8 °F /  6.0 °C 29.6in /  1001.9hPa SSW 15.2mph /  24.5km/h 26.8mph /  43.1km/h 98% 0in /  0.0mm
12:42 43.3 °F /  6.3 °C 42.8 °F /  6.0 °C 29.6in /  1000.9hPa SSW 7.6mph /  12.2km/h 19.5mph /  31.4km/h 98% 0in /  0.0mm
12:52 43.3 °F /  6.3 °C 42.8 °F /  6.0 °C 29.6in /  1000.9hPa South 16.8mph /  27.0km/h 22.8mph /  36.7km/h 98% 0.01in /  0.3mm
12:59 44.1 °F /  6.7 °C 44.6 °F /  7.0 °C 29.6in /  1000.9hPa South 11mph /  17.7km/h 18.8mph /  30.2km/h 98% 0.01in /  0.3mm
13:04 44.1 °F /  6.7 °C 44.6 °F /  7.0 °C 29.6in /  1000.9hPa SW 10.3mph /  16.6km/h 22.8mph /  36.7km/h 98% 0.01in /  0.3mm
13:14 44.1 °F /  6.7 °C 44.6 °F /  7.0 °C 29.5in /  999.9hPa South 10.3mph /  16.6km/h 21.5mph /  34.6km/h 98% 0.01in /  0.3mm
13:21 43.9 °F /  6.6 °C 44.6 °F /  7.0 °C 29.5in /  999.9hPa SSW 11mph /  17.7km/h 17.4mph /  28.0km/h 98% 0.01in /  0.3mm
13:30 43.9 °F /  6.6 °C 44.6 °F /  7.0 °C 29.5in /  998.9hPa SSW 10.1mph /  16.3km/h 23mph /  37.0km/h 98% 0.01in /  0.3mm
13:35 44.1 °F /  6.7 °C 44.6 °F /  7.0 °C 29.5in /  998.9hPa South 8.5mph /  13.7km/h 23.9mph /  38.5km/h 98% 0.01in /  0.3mm
13:40 44.1 °F /  6.7 °C 44.6 °F /  7.0 °C 29.5in /  998.9hPa South 9.8mph /  15.8km/h 23.9mph /  38.5km/h 98% 0.01in /  0.3mm
13:58 44.1 °F /  6.7 °C 44.6 °F /  7.0 °C 29.5in /  997.9hPa SSW 11.4mph /  18.3km/h 19.9mph /  32.0km/h 98% 0.01in /  0.3mm
14:17 44.4 °F /  6.9 °C 44.6 °F /  7.0 °C 29.5in /  997.9hPa South 12.8mph /  20.6km/h 19mph /  30.6km/h 98% 0.04in /  1.0mm
14:29 44.4 °F /  6.9 °C 44.6 °F /  7.0 °C 29.4in /  996.8hPa SSW 17.2mph /  27.7km/h 22.6mph /  36.4km/h 98% 0.05in /  1.3mm
14:37 44.6 °F /  7.0 °C 44.6 °F /  7.0 °C 29.4in /  996.8hPa SW 12.5mph /  20.1km/h 25.1mph /  40.4km/h 98% 0.06in /  1.5mm
14:42 44.6 °F /  7.0 °C 44.6 °F /  7.0 °C 29.4in /  996.8hPa SSW 14.8mph /  23.8km/h 25.1mph /  40.4km/h 98% 0.07in /  1.8mm
14:52 44.8 °F /  7.1 °C 44.6 °F /  7.0 °C 29.4in /  996.8hPa SSW 13.2mph /  21.2km/h 24.2mph /  38.9km/h 98% 0.07in /  1.8mm
15:01 44.8 °F /  7.1 °C 44.6 °F /  7.0 °C 29.4in /  996.2hPa South 10.3mph /  16.6km/h 23.5mph /  37.8km/h 98% 0.09in /  2.3mm
15:06 44.8 °F /  7.1 °C 44.6 °F /  7.0 °C 29.4in /  996.2hPa South 10.7mph /  17.2km/h 21.9mph /  35.2km/h 98% 0.1in /  2.5mm
15:19 44.8 °F /  7.1 °C 44.6 °F /  7.0 °C 29.4in /  995.1hPa SSW 14.3mph /  23.0km/h 17.7mph /  28.5km/h 98% 0.09in /  2.3mm
15:24 44.8 °F /  7.1 °C 44.6 °F /  7.0 °C 29.4in /  995.1hPa SSW 12.8mph /  20.6km/h 21.9mph /  35.2km/h 98% 0.07in /  1.8mm
15:31 44.8 °F /  7.1 °C 44.6 °F /  7.0 °C 29.4in /  995.1hPa SSW 11.9mph /  19.1km/h 21.9mph /  35.2km/h 98% 0.07in /  1.8mm
15:40 44.8 °F /  7.1 °C 44.6 °F /  7.0 °C 29.4in /  995.1hPa SSW 8.7mph /  14.0km/h 22.6mph /  36.4km/h 98% 0.09in /  2.3mm
15:57 45 °F /  7.2 °C 44.6 °F /  7.0 °C 29.4in /  994.1hPa SSW 13.2mph /  21.2km/h 19.7mph /  31.7km/h 98% 0.09in /  2.3mm
16:03 45 °F /  7.2 °C 44.6 °F /  7.0 °C 29.4in /  994.1hPa SSW 13mph /  20.9km/h 23.5mph /  37.8km/h 98% 0.07in /  1.8mm
16:12 45.1 °F /  7.3 °C 44.6 °F /  7.0 °C 29.4in /  994.1hPa SSW 10.5mph /  16.9km/h 17.4mph /  28.0km/h 98% 0.07in /  1.8mm
16:18 45.3 °F /  7.4 °C 44.6 °F /  7.0 °C 29.4in /  994.1hPa SSW 17.9mph /  28.8km/h 19.9mph /  32.0km/h 98% 0.06in /  1.5mm
16:25 45.5 °F /  7.5 °C 46.4 °F /  8.0 °C 29.4in /  994.1hPa SW 12.3mph /  19.8km/h 19.9mph /  32.0km/h 98% 0.06in /  1.5mm
16:37 45.9 °F /  7.7 °C 46.4 °F /  8.0 °C 29.3in /  993.1hPa South 13.6mph /  21.9km/h 19.5mph /  31.4km/h 98% 0.04in /  1.0mm
16:42 45.9 °F /  7.7 °C 46.4 °F /  8.0 °C 29.3in /  992.1hPa WSW 10.5mph /  16.9km/h 18.6mph /  29.9km/h 98% 0.03in /  0.8mm
16:51 46 °F /  7.8 °C 46.4 °F /  8.0 °C 29.3in /  992.1hPa SSW 12.8mph /  20.6km/h 21.9mph /  35.2km/h 98% 0.01in /  0.3mm
17:00 46.2 °F /  7.9 °C 46.4 °F /  8.0 °C 29.3in /  993.1hPa SSW 10.3mph /  16.6km/h 22.8mph /  36.7km/h 98% 0.01in /  0.3mm
17:07 46.2 °F /  7.9 °C 46.4 °F /  8.0 °C 29.3in /  993.1hPa WSW 13mph /  20.9km/h 22.8mph /  36.7km/h 98% 0.01in /  0.3mm
17:13 46.4 °F /  8.0 °C 46.4 °F /  8.0 °C 29.3in /  993.1hPa SSW 15.9mph /  25.6km/h 17.4mph /  28.0km/h 98% 0in /  0.0mm
17:18 46.4 °F /  8.0 °C 46.4 °F /  8.0 °C 29.3in /  993.1hPa SSW 8.5mph /  13.7km/h 21.5mph /  34.6km/h 98% 0in /  0.0mm
17:23 46.4 °F /  8.0 °C 46.4 °F /  8.0 °C 29.3in /  993.1hPa SSW 11mph /  17.7km/h 21.5mph /  34.6km/h 98% 0in /  0.0mm
17:32 46.8 °F /  8.2 °C 46.4 °F /  8.0 °C 29.3in /  993.1hPa SW 13mph /  20.9km/h 19.9mph /  32.0km/h 98% 0in /  0.0mm
17:43 46.9 °F /  8.3 °C 48.2 °F /  9.0 °C 29.3in /  993.1hPa SSW 10.3mph /  16.6km/h 15.4mph /  24.8km/h 98% 0in /  0.0mm
17:49 47.3 °F /  8.5 °C 48.2 °F /  9.0 °C 29.3in /  993.1hPa SW 8.7mph /  14.0km/h 17.4mph /  28.0km/h 98% 0in /  0.0mm
18:01 47.7 °F /  8.7 °C 48.2 °F /  9.0 °C 29.3in /  993.1hPa SW 10.3mph /  16.6km/h 17.4mph /  28.0km/h 98% 0.03in /  0.8mm
18:11 47.8 °F /  8.8 °C 48.2 °F /  9.0 °C 29.3in /  993.1hPa WSW 10.5mph /  16.9km/h 16.8mph /  27.0km/h 98% 0.09in /  2.3mm
18:19 47.8 °F /  8.8 °C 48.2 °F /  9.0 °C 29.3in /  993.1hPa SW 6.7mph /  10.8km/h 10.5mph /  16.9km/h 98% 0.1in /  2.5mm
18:27 47.8 °F /  8.8 °C 48.2 °F /  9.0 °C 29.4in /  994.1hPa SW 5.8mph /  9.3km/h 8.7mph /  14.0km/h 98% 0.1in /  2.5mm
18:34 48 °F /  8.9 °C 48.2 °F /  9.0 °C 29.4in /  994.1hPa WSW 11mph /  17.7km/h 11.9mph /  19.1km/h 98% 0.1in /  2.5mm
18:42 48.4 °F /  9.1 °C 48.2 °F /  9.0 °C 29.3in /  993.1hPa WSW 8.1mph /  13.0km/h 12.5mph /  20.1km/h 98% 0.1in /  2.5mm
18:49 48.6 °F /  9.2 °C 48.2 °F /  9.0 °C 29.3in /  993.1hPa WSW 8.5mph /  13.7km/h 12.8mph /  20.6km/h 98% 0.1in /  2.5mm
18:55 48.7 °F /  9.3 °C 48.2 °F /  9.0 °C 29.3in /  993.1hPa West 7.6mph /  12.2km/h 15.2mph /  24.5km/h 98% 0.09in /  2.3mm
19:34 48.7 °F /  9.3 °C 48.2 °F /  9.0 °C 29.3in /  993.1hPa WSW 10.3mph /  16.6km/h 17.2mph /  27.7km/h 98% 0in /  0.0mm
19:39 48.7 °F /  9.3 °C 48.2 °F /  9.0 °C 29.3in /  993.1hPa West 7.8mph /  12.6km/h 17mph /  27.4km/h 98% 0in /  0.0mm
19:48 48.4 °F /  9.1 °C 48.2 °F /  9.0 °C 29.3in /  993.1hPa West 16.3mph /  26.2km/h 16.3mph /  26.2km/h 98% 0in /  0.0mm
20:07 48.4 °F /  9.1 °C 48.2 °F /  9.0 °C 29.3in /  993.1hPa West 10.3mph /  16.6km/h 17.2mph /  27.7km/h 98% 0.01in /  0.3mm
20:14 48.4 °F /  9.1 °C 48.2 °F /  9.0 °C 29.4in /  994.1hPa West 15.9mph /  25.6km/h 17.2mph /  27.7km/h 98% 0.01in /  0.3mm
20:21 48.2 °F /  9.0 °C 48.2 °F /  9.0 °C 29.4in /  994.1hPa West 11mph /  17.7km/h 17.7mph /  28.5km/h 98% 0.01in /  0.3mm
20:27 48.2 °F /  9.0 °C 48.2 °F /  9.0 °C 29.4in /  994.1hPa West 7.8mph /  12.6km/h 17.7mph /  28.5km/h 98% 0.01in /  0.3mm
20:37 48.4 °F /  9.1 °C 48.2 °F /  9.0 °C 29.4in /  994.1hPa West 9.8mph /  15.8km/h 17.4mph /  28.0km/h 98% 0.01in /  0.3mm
20:43 48.4 °F /  9.1 °C 48.2 °F /  9.0 °C 29.4in /  994.1hPa WSW 14.5mph /  23.3km/h 23.3mph /  37.5km/h 98% 0.01in /  0.3mm
21:13 48 °F /  8.9 °C 46.4 °F /  8.0 °C 29.4in /  994.1hPa West 7.8mph /  12.6km/h 19.9mph /  32.0km/h 93% 0in /  0.0mm
21:37 48 °F /  8.9 °C 46.4 °F /  8.0 °C 29.4in /  995.1hPa WNW 2.7mph /  4.3km/h 16.8mph /  27.0km/h 93% 0in /  0.0mm
21:46 47.3 °F /  8.5 °C 46.4 °F /  8.0 °C 29.4in /  995.1hPa West 8.7mph /  14.0km/h 8.7mph /  14.0km/h 92% 0in /  0.0mm
21:47 47.3 °F /  8.5 °C 46.4 °F /  8.0 °C 29.4in /  995.1hPa West 3.8mph /  6.1km/h 8.7mph /  14.0km/h 92% 0in /  0.0mm
21:48 47.3 °F /  8.5 °C 46.4 °F /  8.0 °C 29.4in /  995.1hPa NW 2.7mph /  4.3km/h 8.7mph /  14.0km/h 92% 0in /  0.0mm
21:49 47.3 °F /  8.5 °C 46.4 °F /  8.0 °C 29.4in /  995.1hPa WNW 2.7mph /  4.3km/h 8.7mph /  14.0km/h 92% 0in /  0.0mm
21:50 47.3 °F /  8.5 °C 46.4 °F /  8.0 °C 29.4in /  995.1hPa WSW 2.9mph /  4.7km/h 8.7mph /  14.0km/h 92% 0in /  0.0mm
21:53 47.3 °F /  8.5 °C 46.4 °F /  8.0 °C 29.4in /  995.1hPa WNW 3.8mph /  6.1km/h 8.7mph /  14.0km/h 92% 0in /  0.0mm
21:58 47.3 °F /  8.5 °C 46.4 °F /  8.0 °C 29.4in /  995.1hPa North 2.5mph /  4.0km/h 5.8mph /  9.3km/h 92% 0in /  0.0mm
22:02 47.3 °F /  8.5 °C 46.4 °F /  8.0 °C 29.4in /  995.1hPa Calm   6.5mph /  10.5km/h 92% 0in /  0.0mm
22:06 47.3 °F /  8.5 °C 46.4 °F /  8.0 °C 29.4in /  995.1hPa WSW 5.6mph /  9.0km/h 6.5mph /  10.5km/h 92% 0in /  0.0mm
22:13 47.3 °F /  8.5 °C 46.4 °F /  8.0 °C 29.4in /  995.1hPa SW 4.9mph /  7.9km/h 5.8mph /  9.3km/h 92% 0in /  0.0mm
22:17 47.3 °F /  8.5 °C 46.4 °F /  8.0 °C 29.4in /  995.1hPa West 8.7mph /  14.0km/h 8.7mph /  14.0km/h 92% 0in /  0.0mm
22:25 47.3 °F /  8.5 °C 46.4 °F /  8.0 °C 29.4in /  995.1hPa West 7.8mph /  12.6km/h 19.2mph /  30.9km/h 92% 0in /  0.0mm
23:01 45.1 °F /  7.3 °C 42.8 °F /  6.0 °C 29.4in /  995.1hPa WSW 10.5mph /  16.9km/h 15.7mph /  25.3km/h 92% 0in /  0.0mm
23:08 45 °F /  7.2 °C 42.8 °F /  6.0 °C 29.4in /  995.1hPa WSW 10.7mph /  17.2km/h 17.7mph /  28.5km/h 92% 0in /  0.0mm
23:17 45.1 °F /  7.3 °C 42.8 °F /  6.0 °C 29.4in /  995.1hPa West 13mph /  20.9km/h 17mph /  27.4km/h 92% 0in /  0.0mm
23:30 44.8 °F /  7.1 °C 42.8 °F /  6.0 °C 29.4in /  995.1hPa WSW 12.8mph /  20.6km/h 15.2mph /  24.5km/h 91% 0in /  0.0mm
23:44 44.8 °F /  7.1 °C 42.8 °F /  6.0 °C 29.4in /  995.1hPa West 13.2mph /  21.2km/h 15.7mph /  25.3km/h 91% 0in /  0.0mm
23:55 45 °F /  7.2 °C 42.8 °F /  6.0 °C 29.4in /  995.1hPa West 15.2mph /  24.5km/h 17.7mph /  28.5km/h 90% 0in /  0.0mm
Données Historique de Météo Turbie

Mise a jour : 22/05/2018 21:36:12
Généré par Cumulus 1.9.4 (1099)